sensor_id;sensor_type;location;lat;lon;timestamp;P1;durP1;ratioP1;P2;durP2;ratioP2
67146;SDS011;54061;52.036;5.558;2022-09-06T00:00:32;2.58;;;2.10;;
67146;SDS011;54061;52.036;5.558;2022-09-06T00:02:58;2.92;;;1.98;;
67146;SDS011;54061;52.036;5.558;2022-09-06T00:05:25;3.20;;;1.98;;
67146;SDS011;54061;52.036;5.558;2022-09-06T00:07:51;4.97;;;2.13;;
67146;SDS011;54061;52.036;5.558;2022-09-06T00:10:17;2.38;;;2.05;;
67146;SDS011;54061;52.036;5.558;2022-09-06T00:12:42;3.72;;;2.00;;
67146;SDS011;54061;52.036;5.558;2022-09-06T00:15:08;8.07;;;2.35;;
67146;SDS011;54061;52.036;5.558;2022-09-06T00:17:34;6.22;;;2.40;;
67146;SDS011;54061;52.036;5.558;2022-09-06T00:20:00;4.40;;;2.78;;
67146;SDS011;54061;52.036;5.558;2022-09-06T00:22:27;4.57;;;2.40;;
67146;SDS011;54061;52.036;5.558;2022-09-06T00:24:52;3.90;;;3.15;;
67146;SDS011;54061;52.036;5.558;2022-09-06T00:27:18;5.85;;;3.22;;
67146;SDS011;54061;52.036;5.558;2022-09-06T00:29:43;3.78;;;2.85;;
67146;SDS011;54061;52.036;5.558;2022-09-06T00:32:09;7.05;;;3.38;;
67146;SDS011;54061;52.036;5.558;2022-09-06T00:34:34;4.82;;;3.55;;
67146;SDS011;54061;52.036;5.558;2022-09-06T00:37:00;5.95;;;3.38;;
67146;SDS011;54061;52.036;5.558;2022-09-06T00:39:25;5.32;;;3.67;;
67146;SDS011;54061;52.036;5.558;2022-09-06T00:41:51;9.15;;;3.47;;
67146;SDS011;54061;52.036;5.558;2022-09-06T00:44:16;4.40;;;3.00;;
67146;SDS011;54061;52.036;5.558;2022-09-06T00:46:43;6.07;;;3.67;;
67146;SDS011;54061;52.036;5.558;2022-09-06T00:51:52;7.43;;;3.22;;
67146;SDS011;54061;52.036;5.558;2022-09-06T00:54:25;4.97;;;3.70;;
67146;SDS011;54061;52.036;5.558;2022-09-06T00:56:52;5.22;;;3.65;;
67146;SDS011;54061;52.036;5.558;2022-09-06T00:59:19;7.90;;;3.65;;
67146;SDS011;54061;52.036;5.558;2022-09-06T01:01:45;4.20;;;3.47;;
67146;SDS011;54061;52.036;5.558;2022-09-06T01:04:11;6.68;;;3.63;;
67146;SDS011;54061;52.036;5.558;2022-09-06T01:06:41;7.40;;;3.60;;
67146;SDS011;54061;52.036;5.558;2022-09-06T01:09:42;4.38;;;3.40;;
67146;SDS011;54061;52.036;5.558;2022-09-06T01:12:20;7.53;;;3.20;;
67146;SDS011;54061;52.036;5.558;2022-09-06T01:23:19;4.87;;;3.20;;
67146;SDS011;54061;52.036;5.558;2022-09-06T01:28:41;4.32;;;3.42;;
67146;SDS011;54061;52.036;5.558;2022-09-06T01:33:53;8.85;;;3.00;;
67146;SDS011;54061;52.036;5.558;2022-09-06T01:39:52;4.30;;;3.60;;
67146;SDS011;54061;52.036;5.558;2022-09-06T01:42:02;8.63;;;3.50;;
67146;SDS011;54061;52.036;5.558;2022-09-06T01:44:32;9.98;;;4.55;;
67146;SDS011;54061;52.036;5.558;2022-09-06T01:50:02;4.93;;;3.03;;
67146;SDS011;54061;52.036;5.558;2022-09-06T01:56:10;6.45;;;3.20;;
67146;SDS011;54061;52.036;5.558;2022-09-06T01:58:36;5.00;;;2.92;;
67146;SDS011;54061;52.036;5.558;2022-09-06T02:01:28;9.75;;;4.35;;
67146;SDS011;54061;52.036;5.558;2022-09-06T02:06:44;7.43;;;3.65;;
67146;SDS011;54061;52.036;5.558;2022-09-06T02:09:14;3.45;;;3.05;;
67146;SDS011;54061;52.036;5.558;2022-09-06T02:11:50;5.15;;;3.45;;
67146;SDS011;54061;52.036;5.558;2022-09-06T02:14:22;4.00;;;3.60;;
67146;SDS011;54061;52.036;5.558;2022-09-06T02:16:53;5.93;;;3.42;;
67146;SDS011;54061;52.036;5.558;2022-09-06T02:19:28;10.20;;;3.67;;
67146;SDS011;54061;52.036;5.558;2022-09-06T02:24:31;5.57;;;3.65;;
67146;SDS011;54061;52.036;5.558;2022-09-06T02:27:01;3.60;;;3.25;;
67146;SDS011;54061;52.036;5.558;2022-09-06T02:29:27;8.05;;;4.32;;
67146;SDS011;54061;52.036;5.558;2022-09-06T02:31:58;5.90;;;3.95;;
67146;SDS011;54061;52.036;5.558;2022-09-06T02:34:29;4.38;;;3.85;;
67146;SDS011;54061;52.036;5.558;2022-09-06T02:36:54;4.45;;;3.63;;
67146;SDS011;54061;52.036;5.558;2022-09-06T02:39:21;5.60;;;4.40;;
67146;SDS011;54061;52.036;5.558;2022-09-06T02:41:47;7.60;;;4.72;;
67146;SDS011;54061;52.036;5.558;2022-09-06T02:44:13;7.57;;;5.00;;
67146;SDS011;54061;52.036;5.558;2022-09-06T02:46:39;9.02;;;4.95;;
67146;SDS011;54061;52.036;5.558;2022-09-06T02:49:04;5.80;;;4.85;;
67146;SDS011;54061;52.036;5.558;2022-09-06T02:51:34;7.70;;;5.03;;
67146;SDS011;54061;52.036;5.558;2022-09-06T02:54:04;8.90;;;5.30;;
67146;SDS011;54061;52.036;5.558;2022-09-06T02:56:30;6.72;;;4.40;;
67146;SDS011;54061;52.036;5.558;2022-09-06T02:58:57;7.57;;;5.05;;
67146;SDS011;54061;52.036;5.558;2022-09-06T03:01:23;6.05;;;5.00;;
67146;SDS011;54061;52.036;5.558;2022-09-06T03:03:49;5.07;;;3.97;;
67146;SDS011;54061;52.036;5.558;2022-09-06T03:06:15;11.70;;;4.88;;
67146;SDS011;54061;52.036;5.558;2022-09-06T03:08:40;6.35;;;5.05;;
67146;SDS011;54061;52.036;5.558;2022-09-06T03:11:06;6.68;;;4.50;;
67146;SDS011;54061;52.036;5.558;2022-09-06T03:13:31;6.55;;;4.95;;
67146;SDS011;54061;52.036;5.558;2022-09-06T03:15:57;6.22;;;5.13;;
67146;SDS011;54061;52.036;5.558;2022-09-06T03:18:24;8.43;;;5.07;;
67146;SDS011;54061;52.036;5.558;2022-09-06T03:20:52;6.47;;;5.18;;
67146;SDS011;54061;52.036;5.558;2022-09-06T03:23:19;7.82;;;5.30;;
67146;SDS011;54061;52.036;5.558;2022-09-06T03:25:46;6.00;;;4.80;;
67146;SDS011;54061;52.036;5.558;2022-09-06T03:28:11;5.78;;;4.97;;
67146;SDS011;54061;52.036;5.558;2022-09-06T03:30:37;6.63;;;4.97;;
67146;SDS011;54061;52.036;5.558;2022-09-06T03:33:04;6.30;;;5.05;;
67146;SDS011;54061;52.036;5.558;2022-09-06T03:35:30;7.75;;;4.65;;
67146;SDS011;54061;52.036;5.558;2022-09-06T03:37:55;6.90;;;4.57;;
67146;SDS011;54061;52.036;5.558;2022-09-06T03:40:21;9.30;;;5.13;;
67146;SDS011;54061;52.036;5.558;2022-09-06T03:42:46;7.32;;;5.00;;
67146;SDS011;54061;52.036;5.558;2022-09-06T03:45:12;13.20;;;5.43;;
67146;SDS011;54061;52.036;5.558;2022-09-06T03:47:38;9.90;;;5.63;;
67146;SDS011;54061;52.036;5.558;2022-09-06T03:50:04;11.13;;;6.15;;
67146;SDS011;54061;52.036;5.558;2022-09-06T03:52:30;9.80;;;5.20;;
67146;SDS011;54061;52.036;5.558;2022-09-06T03:54:56;6.88;;;5.45;;
67146;SDS011;54061;52.036;5.558;2022-09-06T03:57:21;9.23;;;6.60;;
67146;SDS011;54061;52.036;5.558;2022-09-06T03:59:47;9.52;;;5.88;;
67146;SDS011;54061;52.036;5.558;2022-09-06T04:02:12;10.18;;;5.85;;
67146;SDS011;54061;52.036;5.558;2022-09-06T04:04:38;8.60;;;5.43;;
67146;SDS011;54061;52.036;5.558;2022-09-06T04:07:03;8.15;;;5.47;;
67146;SDS011;54061;52.036;5.558;2022-09-06T04:09:29;12.35;;;5.97;;
67146;SDS011;54061;52.036;5.558;2022-09-06T04:11:55;6.05;;;5.47;;
67146;SDS011;54061;52.036;5.558;2022-09-06T04:14:20;8.25;;;5.10;;
67146;SDS011;54061;52.036;5.558;2022-09-06T04:16:46;10.82;;;5.60;;
67146;SDS011;54061;52.036;5.558;2022-09-06T04:19:11;11.77;;;5.43;;
67146;SDS011;54061;52.036;5.558;2022-09-06T04:21:37;7.82;;;5.68;;
67146;SDS011;54061;52.036;5.558;2022-09-06T04:24:02;6.68;;;4.65;;
67146;SDS011;54061;52.036;5.558;2022-09-06T04:26:28;5.90;;;4.72;;
67146;SDS011;54061;52.036;5.558;2022-09-06T04:28:54;7.35;;;4.88;;
67146;SDS011;54061;52.036;5.558;2022-09-06T04:31:19;8.73;;;5.40;;
67146;SDS011;54061;52.036;5.558;2022-09-06T04:33:45;7.00;;;5.10;;
67146;SDS011;54061;52.036;5.558;2022-09-06T04:36:11;8.43;;;4.88;;
67146;SDS011;54061;52.036;5.558;2022-09-06T04:38:38;9.93;;;5.03;;
67146;SDS011;54061;52.036;5.558;2022-09-06T04:41:06;7.78;;;5.30;;
67146;SDS011;54061;52.036;5.558;2022-09-06T04:43:33;5.90;;;5.15;;
67146;SDS011;54061;52.036;5.558;2022-09-06T04:46:02;10.20;;;5.50;;
67146;SDS011;54061;52.036;5.558;2022-09-06T04:48:33;9.25;;;5.28;;
67146;SDS011;54061;52.036;5.558;2022-09-06T04:50:59;14.25;;;4.88;;
67146;SDS011;54061;52.036;5.558;2022-09-06T04:53:24;7.40;;;5.05;;
67146;SDS011;54061;52.036;5.558;2022-09-06T04:55:50;6.60;;;5.25;;
67146;SDS011;54061;52.036;5.558;2022-09-06T04:58:16;6.57;;;4.60;;
67146;SDS011;54061;52.036;5.558;2022-09-06T05:00:41;9.15;;;5.72;;
67146;SDS011;54061;52.036;5.558;2022-09-06T05:03:08;8.45;;;5.35;;
67146;SDS011;54061;52.036;5.558;2022-09-06T05:05:34;7.80;;;5.53;;
67146;SDS011;54061;52.036;5.558;2022-09-06T05:08:00;6.00;;;4.70;;
67146;SDS011;54061;52.036;5.558;2022-09-06T05:10:25;8.05;;;5.32;;
67146;SDS011;54061;52.036;5.558;2022-09-06T05:12:51;9.60;;;5.47;;
67146;SDS011;54061;52.036;5.558;2022-09-06T05:15:19;6.95;;;5.82;;
67146;SDS011;54061;52.036;5.558;2022-09-06T05:17:45;10.20;;;6.05;;
67146;SDS011;54061;52.036;5.558;2022-09-06T05:20:11;7.78;;;5.90;;
67146;SDS011;54061;52.036;5.558;2022-09-06T05:22:37;10.57;;;6.68;;
67146;SDS011;54061;52.036;5.558;2022-09-06T05:25:03;6.88;;;6.25;;
67146;SDS011;54061;52.036;5.558;2022-09-06T05:27:29;9.70;;;7.13;;
67146;SDS011;54061;52.036;5.558;2022-09-06T05:29:55;8.95;;;6.53;;
67146;SDS011;54061;52.036;5.558;2022-09-06T05:32:20;9.20;;;6.75;;
67146;SDS011;54061;52.036;5.558;2022-09-06T05:34:46;18.05;;;7.43;;
67146;SDS011;54061;52.036;5.558;2022-09-06T05:37:12;13.30;;;6.55;;
67146;SDS011;54061;52.036;5.558;2022-09-06T05:39:37;14.52;;;6.35;;
67146;SDS011;54061;52.036;5.558;2022-09-06T05:42:03;9.35;;;5.85;;
67146;SDS011;54061;52.036;5.558;2022-09-06T05:44:31;11.60;;;6.70;;
67146;SDS011;54061;52.036;5.558;2022-09-06T05:47:00;9.05;;;6.55;;
67146;SDS011;54061;52.036;5.558;2022-09-06T05:49:29;13.05;;;6.90;;
67146;SDS011;54061;52.036;5.558;2022-09-06T05:51:55;13.23;;;6.68;;
67146;SDS011;54061;52.036;5.558;2022-09-06T05:54:21;9.25;;;7.07;;
67146;SDS011;54061;52.036;5.558;2022-09-06T05:56:47;11.15;;;7.00;;
67146;SDS011;54061;52.036;5.558;2022-09-06T05:59:12;14.80;;;6.85;;
67146;SDS011;54061;52.036;5.558;2022-09-06T06:01:45;7.50;;;6.47;;
67146;SDS011;54061;52.036;5.558;2022-09-06T06:04:17;7.63;;;6.45;;
67146;SDS011;54061;52.036;5.558;2022-09-06T06:06:43;8.95;;;6.70;;
67146;SDS011;54061;52.036;5.558;2022-09-06T06:09:10;11.20;;;7.25;;
67146;SDS011;54061;52.036;5.558;2022-09-06T06:11:37;9.77;;;6.53;;
67146;SDS011;54061;52.036;5.558;2022-09-06T06:14:02;11.07;;;6.97;;
67146;SDS011;54061;52.036;5.558;2022-09-06T06:16:29;12.93;;;7.45;;
67146;SDS011;54061;52.036;5.558;2022-09-06T06:18:54;13.27;;;6.10;;
67146;SDS011;54061;52.036;5.558;2022-09-06T06:21:21;13.77;;;7.18;;
67146;SDS011;54061;52.036;5.558;2022-09-06T06:23:49;11.38;;;7.72;;
67146;SDS011;54061;52.036;5.558;2022-09-06T06:26:16;8.70;;;7.05;;
67146;SDS011;54061;52.036;5.558;2022-09-06T06:28:42;11.40;;;7.40;;
67146;SDS011;54061;52.036;5.558;2022-09-06T06:31:08;16.50;;;8.93;;
67146;SDS011;54061;52.036;5.558;2022-09-06T06:33:35;11.55;;;7.05;;
67146;SDS011;54061;52.036;5.558;2022-09-06T06:36:03;10.35;;;8.27;;
67146;SDS011;54061;52.036;5.558;2022-09-06T06:38:35;12.70;;;8.25;;
67146;SDS011;54061;52.036;5.558;2022-09-06T06:41:02;18.02;;;8.52;;
67146;SDS011;54061;52.036;5.558;2022-09-06T06:43:29;11.48;;;8.23;;
67146;SDS011;54061;52.036;5.558;2022-09-06T06:46:01;15.03;;;8.13;;
67146;SDS011;54061;52.036;5.558;2022-09-06T06:48:46;10.38;;;7.90;;
67146;SDS011;54061;52.036;5.558;2022-09-06T06:51:13;10.88;;;8.45;;
67146;SDS011;54061;52.036;5.558;2022-09-06T06:53:40;11.15;;;8.77;;
67146;SDS011;54061;52.036;5.558;2022-09-06T06:56:24;10.80;;;8.80;;
67146;SDS011;54061;52.036;5.558;2022-09-06T06:58:52;12.00;;;7.60;;
67146;SDS011;54061;52.036;5.558;2022-09-06T07:01:20;11.23;;;8.15;;
67146;SDS011;54061;52.036;5.558;2022-09-06T07:03:47;10.70;;;7.88;;
67146;SDS011;54061;52.036;5.558;2022-09-06T07:06:13;12.32;;;8.10;;
67146;SDS011;54061;52.036;5.558;2022-09-06T07:08:39;13.02;;;8.68;;
67146;SDS011;54061;52.036;5.558;2022-09-06T07:11:05;13.68;;;8.68;;
67146;SDS011;54061;52.036;5.558;2022-09-06T07:13:32;13.32;;;9.10;;
67146;SDS011;54061;52.036;5.558;2022-09-06T07:16:08;9.80;;;8.25;;
67146;SDS011;54061;52.036;5.558;2022-09-06T07:18:39;12.45;;;8.15;;
67146;SDS011;54061;52.036;5.558;2022-09-06T07:21:16;10.85;;;8.05;;
67146;SDS011;54061;52.036;5.558;2022-09-06T07:23:45;12.45;;;8.00;;
67146;SDS011;54061;52.036;5.558;2022-09-06T07:26:14;11.60;;;7.75;;
67146;SDS011;54061;52.036;5.558;2022-09-06T07:28:42;8.93;;;8.02;;
67146;SDS011;54061;52.036;5.558;2022-09-06T07:31:08;15.18;;;8.40;;
67146;SDS011;54061;52.036;5.558;2022-09-06T07:33:34;10.30;;;8.65;;
67146;SDS011;54061;52.036;5.558;2022-09-06T07:36:02;16.63;;;8.32;;
67146;SDS011;54061;52.036;5.558;2022-09-06T07:38:29;18.75;;;8.43;;
67146;SDS011;54061;52.036;5.558;2022-09-06T07:40:59;10.45;;;8.32;;
67146;SDS011;54061;52.036;5.558;2022-09-06T07:43:29;14.13;;;8.52;;
67146;SDS011;54061;52.036;5.558;2022-09-06T07:48:30;13.02;;;8.02;;
67146;SDS011;54061;52.036;5.558;2022-09-06T07:51:10;10.48;;;7.68;;
67146;SDS011;54061;52.036;5.558;2022-09-06T07:53:37;11.65;;;8.38;;
67146;SDS011;54061;52.036;5.558;2022-09-06T07:56:04;15.63;;;7.35;;
67146;SDS011;54061;52.036;5.558;2022-09-06T07:58:31;12.73;;;8.02;;
67146;SDS011;54061;52.036;5.558;2022-09-06T08:01:13;10.65;;;7.80;;
67146;SDS011;54061;52.036;5.558;2022-09-06T08:03:40;17.58;;;8.00;;
67146;SDS011;54061;52.036;5.558;2022-09-06T08:06:06;9.98;;;7.50;;
67146;SDS011;54061;52.036;5.558;2022-09-06T08:08:32;11.90;;;8.93;;
67146;SDS011;54061;52.036;5.558;2022-09-06T08:10:57;11.43;;;7.60;;
67146;SDS011;54061;52.036;5.558;2022-09-06T08:13:23;16.73;;;8.25;;
67146;SDS011;54061;52.036;5.558;2022-09-06T08:15:56;14.65;;;8.70;;
67146;SDS011;54061;52.036;5.558;2022-09-06T08:18:25;11.32;;;8.23;;
67146;SDS011;54061;52.036;5.558;2022-09-06T08:20:50;11.02;;;8.50;;
67146;SDS011;54061;52.036;5.558;2022-09-06T08:23:16;12.45;;;7.82;;
67146;SDS011;54061;52.036;5.558;2022-09-06T08:25:42;10.43;;;7.93;;
67146;SDS011;54061;52.036;5.558;2022-09-06T08:28:07;19.17;;;7.07;;
67146;SDS011;54061;52.036;5.558;2022-09-06T08:30:33;14.40;;;7.45;;
67146;SDS011;54061;52.036;5.558;2022-09-06T08:32:59;9.77;;;7.43;;
67146;SDS011;54061;52.036;5.558;2022-09-06T08:35:25;13.10;;;7.10;;
67146;SDS011;54061;52.036;5.558;2022-09-06T08:37:50;10.05;;;6.80;;
67146;SDS011;54061;52.036;5.558;2022-09-06T08:40:20;16.17;;;6.82;;
67146;SDS011;54061;52.036;5.558;2022-09-06T08:42:47;13.38;;;7.00;;
67146;SDS011;54061;52.036;5.558;2022-09-06T08:45:14;17.02;;;6.88;;
67146;SDS011;54061;52.036;5.558;2022-09-06T08:47:43;8.90;;;6.38;;
67146;SDS011;54061;52.036;5.558;2022-09-06T08:50:09;19.17;;;6.05;;
67146;SDS011;54061;52.036;5.558;2022-09-06T08:52:46;7.22;;;5.25;;
67146;SDS011;54061;52.036;5.558;2022-09-06T08:55:25;8.90;;;6.20;;
67146;SDS011;54061;52.036;5.558;2022-09-06T08:58:19;8.55;;;5.88;;
67146;SDS011;54061;52.036;5.558;2022-09-06T09:00:50;9.95;;;6.18;;
67146;SDS011;54061;52.036;5.558;2022-09-06T09:03:26;8.30;;;5.32;;
67146;SDS011;54061;52.036;5.558;2022-09-06T09:05:57;7.88;;;5.93;;
67146;SDS011;54061;52.036;5.558;2022-09-06T09:08:28;9.52;;;6.22;;
67146;SDS011;54061;52.036;5.558;2022-09-06T09:11:06;16.27;;;6.60;;
67146;SDS011;54061;52.036;5.558;2022-09-06T09:16:11;12.02;;;5.97;;
67146;SDS011;54061;52.036;5.558;2022-09-06T09:18:38;8.90;;;5.38;;
67146;SDS011;54061;52.036;5.558;2022-09-06T09:21:07;8.18;;;5.45;;
67146;SDS011;54061;52.036;5.558;2022-09-06T09:23:33;18.63;;;6.50;;
67146;SDS011;54061;52.036;5.558;2022-09-06T09:26:09;15.90;;;5.82;;
67146;SDS011;54061;52.036;5.558;2022-09-06T09:28:38;10.48;;;5.65;;
67146;SDS011;54061;52.036;5.558;2022-09-06T09:31:38;10.88;;;5.40;;
67146;SDS011;54061;52.036;5.558;2022-09-06T09:34:09;10.48;;;5.57;;
67146;SDS011;54061;52.036;5.558;2022-09-06T09:36:37;9.43;;;5.22;;
67146;SDS011;54061;52.036;5.558;2022-09-06T09:39:09;6.72;;;5.30;;
67146;SDS011;54061;52.036;5.558;2022-09-06T09:41:36;9.85;;;5.18;;
67146;SDS011;54061;52.036;5.558;2022-09-06T09:44:08;13.82;;;5.68;;
67146;SDS011;54061;52.036;5.558;2022-09-06T09:46:39;16.83;;;5.28;;
67146;SDS011;54061;52.036;5.558;2022-09-06T09:49:07;8.38;;;4.90;;
67146;SDS011;54061;52.036;5.558;2022-09-06T09:54:05;12.30;;;5.28;;
67146;SDS011;54061;52.036;5.558;2022-09-06T09:56:33;7.15;;;5.32;;
67146;SDS011;54061;52.036;5.558;2022-09-06T10:01:49;9.02;;;4.85;;
67146;SDS011;54061;52.036;5.558;2022-09-06T10:04:21;11.98;;;5.35;;
67146;SDS011;54061;52.036;5.558;2022-09-06T10:09:47;6.47;;;4.35;;
67146;SDS011;54061;52.036;5.558;2022-09-06T10:12:35;6.38;;;5.10;;
67146;SDS011;54061;52.036;5.558;2022-09-06T10:15:06;8.52;;;4.28;;
67146;SDS011;54061;52.036;5.558;2022-09-06T10:17:35;6.93;;;4.10;;
67146;SDS011;54061;52.036;5.558;2022-09-06T10:20:11;6.32;;;3.30;;
67146;SDS011;54061;52.036;5.558;2022-09-06T10:33:30;12.27;;;3.53;;
67146;SDS011;54061;52.036;5.558;2022-09-06T10:36:01;11.13;;;2.88;;
67146;SDS011;54061;52.036;5.558;2022-09-06T10:38:35;20.77;;;3.95;;
67146;SDS011;54061;52.036;5.558;2022-09-06T10:41:18;10.70;;;2.60;;
67146;SDS011;54061;52.036;5.558;2022-09-06T10:44:15;4.97;;;1.80;;
67146;SDS011;54061;52.036;5.558;2022-09-06T10:47:08;11.52;;;2.25;;
67146;SDS011;54061;52.036;5.558;2022-09-06T10:49:36;5.18;;;2.33;;
67146;SDS011;54061;52.036;5.558;2022-09-06T10:52:05;8.93;;;2.50;;
67146;SDS011;54061;52.036;5.558;2022-09-06T10:54:35;9.43;;;2.70;;
67146;SDS011;54061;52.036;5.558;2022-09-06T10:57:19;2.97;;;2.30;;
67146;SDS011;54061;52.036;5.558;2022-09-06T10:59:50;3.72;;;2.67;;
67146;SDS011;54061;52.036;5.558;2022-09-06T11:02:29;4.18;;;2.33;;
67146;SDS011;54061;52.036;5.558;2022-09-06T11:05:12;5.95;;;2.30;;
67146;SDS011;54061;52.036;5.558;2022-09-06T11:07:45;15.18;;;2.58;;
67146;SDS011;54061;52.036;5.558;2022-09-06T11:10:30;5.72;;;2.50;;
67146;SDS011;54061;52.036;5.558;2022-09-06T11:15:52;3.55;;;2.28;;
67146;SDS011;54061;52.036;5.558;2022-09-06T11:21:11;9.60;;;1.85;;
67146;SDS011;54061;52.036;5.558;2022-09-06T11:24:06;6.40;;;2.15;;
67146;SDS011;54061;52.036;5.558;2022-09-06T11:29:28;5.32;;;2.10;;
67146;SDS011;54061;52.036;5.558;2022-09-06T11:31:56;12.40;;;2.25;;
67146;SDS011;54061;52.036;5.558;2022-09-06T11:34:26;5.18;;;2.50;;
67146;SDS011;54061;52.036;5.558;2022-09-06T11:37:01;5.38;;;2.63;;
67146;SDS011;54061;52.036;5.558;2022-09-06T11:42:07;4.32;;;2.65;;
67146;SDS011;54061;52.036;5.558;2022-09-06T11:55:20;7.65;;;2.47;;
67146;SDS011;54061;52.036;5.558;2022-09-06T11:57:52;4.13;;;2.78;;
67146;SDS011;54061;52.036;5.558;2022-09-06T12:00:20;6.85;;;2.72;;
67146;SDS011;54061;52.036;5.558;2022-09-06T12:02:48;6.38;;;3.17;;
67146;SDS011;54061;52.036;5.558;2022-09-06T12:05:19;10.10;;;2.80;;
67146;SDS011;54061;52.036;5.558;2022-09-06T12:16:05;9.45;;;2.97;;
67146;SDS011;54061;52.036;5.558;2022-09-06T12:27:13;7.50;;;3.40;;
67146;SDS011;54061;52.036;5.558;2022-09-06T12:32:41;6.60;;;3.25;;
67146;SDS011;54061;52.036;5.558;2022-09-06T12:35:15;8.98;;;3.58;;
67146;SDS011;54061;52.036;5.558;2022-09-06T12:37:58;5.80;;;3.53;;
67146;SDS011;54061;52.036;5.558;2022-09-06T12:40:26;5.63;;;3.50;;
67146;SDS011;54061;52.036;5.558;2022-09-06T12:42:55;9.95;;;3.50;;
67146;SDS011;54061;52.036;5.558;2022-09-06T12:45:22;7.05;;;3.38;;
67146;SDS011;54061;52.036;5.558;2022-09-06T12:47:48;11.20;;;4.60;;
67146;SDS011;54061;52.036;5.558;2022-09-06T12:50:20;9.80;;;4.18;;
67146;SDS011;54061;52.036;5.558;2022-09-06T12:55:37;7.22;;;4.00;;
67146;SDS011;54061;52.036;5.558;2022-09-06T12:58:06;8.38;;;3.42;;
67146;SDS011;54061;52.036;5.558;2022-09-06T13:00:34;6.67;;;3.20;;
67146;SDS011;54061;52.036;5.558;2022-09-06T13:05:43;9.77;;;4.05;;
67146;SDS011;54061;52.036;5.558;2022-09-06T13:08:14;9.93;;;3.88;;
67146;SDS011;54061;52.036;5.558;2022-09-06T13:10:47;8.00;;;3.17;;
67146;SDS011;54061;52.036;5.558;2022-09-06T13:13:20;5.45;;;2.83;;
67146;SDS011;54061;52.036;5.558;2022-09-06T13:15:48;5.90;;;2.88;;
67146;SDS011;54061;52.036;5.558;2022-09-06T13:18:31;6.05;;;3.70;;
67146;SDS011;54061;52.036;5.558;2022-09-06T13:21:00;8.70;;;3.80;;
67146;SDS011;54061;52.036;5.558;2022-09-06T13:23:26;5.75;;;2.80;;
67146;SDS011;54061;52.036;5.558;2022-09-06T13:25:52;4.80;;;2.38;;
67146;SDS011;54061;52.036;5.558;2022-09-06T13:28:26;7.60;;;3.08;;
67146;SDS011;54061;52.036;5.558;2022-09-06T13:33:33;11.15;;;4.00;;
67146;SDS011;54061;52.036;5.558;2022-09-06T13:36:07;8.90;;;3.72;;
67146;SDS011;54061;52.036;5.558;2022-09-06T13:43:59;7.70;;;3.73;;
67146;SDS011;54061;52.036;5.558;2022-09-06T13:46:31;5.55;;;2.53;;
67146;SDS011;54061;52.036;5.558;2022-09-06T13:48:57;7.32;;;2.90;;
67146;SDS011;54061;52.036;5.558;2022-09-06T13:51:23;4.40;;;2.70;;
67146;SDS011;54061;52.036;5.558;2022-09-06T13:53:50;4.47;;;2.70;;
67146;SDS011;54061;52.036;5.558;2022-09-06T13:56:30;9.68;;;3.60;;
67146;SDS011;54061;52.036;5.558;2022-09-06T13:58:56;6.32;;;3.00;;
67146;SDS011;54061;52.036;5.558;2022-09-06T14:01:21;4.90;;;2.55;;
67146;SDS011;54061;52.036;5.558;2022-09-06T14:03:46;3.95;;;2.03;;
67146;SDS011;54061;52.036;5.558;2022-09-06T14:06:13;5.43;;;1.92;;
67146;SDS011;54061;52.036;5.558;2022-09-06T14:08:40;11.63;;;2.00;;
67146;SDS011;54061;52.036;5.558;2022-09-06T14:11:06;5.18;;;2.75;;
67146;SDS011;54061;52.036;5.558;2022-09-06T14:13:32;6.47;;;2.05;;
67146;SDS011;54061;52.036;5.558;2022-09-06T14:15:57;3.63;;;2.08;;
67146;SDS011;54061;52.036;5.558;2022-09-06T14:18:23;5.35;;;2.55;;
67146;SDS011;54061;52.036;5.558;2022-09-06T14:20:52;5.82;;;2.70;;
67146;SDS011;54061;52.036;5.558;2022-09-06T14:23:19;3.22;;;2.05;;
67146;SDS011;54061;52.036;5.558;2022-09-06T14:25:45;5.45;;;2.75;;
67146;SDS011;54061;52.036;5.558;2022-09-06T14:28:10;4.72;;;2.33;;
67146;SDS011;54061;52.036;5.558;2022-09-06T14:30:36;5.70;;;1.95;;
67146;SDS011;54061;52.036;5.558;2022-09-06T14:33:02;6.55;;;2.20;;
67146;SDS011;54061;52.036;5.558;2022-09-06T14:35:29;7.47;;;2.47;;
67146;SDS011;54061;52.036;5.558;2022-09-06T14:37:56;5.78;;;1.95;;
67146;SDS011;54061;52.036;5.558;2022-09-06T14:40:22;4.15;;;1.80;;
67146;SDS011;54061;52.036;5.558;2022-09-06T14:42:47;4.05;;;2.05;;
67146;SDS011;54061;52.036;5.558;2022-09-06T14:45:13;11.82;;;2.00;;
67146;SDS011;54061;52.036;5.558;2022-09-06T14:47:38;4.93;;;1.95;;
67146;SDS011;54061;52.036;5.558;2022-09-06T14:50:04;6.38;;;1.90;;
67146;SDS011;54061;52.036;5.558;2022-09-06T14:52:33;5.95;;;1.83;;
67146;SDS011;54061;52.036;5.558;2022-09-06T14:54:58;10.07;;;1.70;;
67146;SDS011;54061;52.036;5.558;2022-09-06T14:57:24;5.95;;;2.35;;
67146;SDS011;54061;52.036;5.558;2022-09-06T14:59:50;9.27;;;2.38;;
67146;SDS011;54061;52.036;5.558;2022-09-06T15:02:15;6.47;;;1.80;;
67146;SDS011;54061;52.036;5.558;2022-09-06T15:04:41;7.32;;;1.50;;
67146;SDS011;54061;52.036;5.558;2022-09-06T15:07:06;6.70;;;1.83;;
67146;SDS011;54061;52.036;5.558;2022-09-06T15:09:34;3.95;;;1.77;;
67146;SDS011;54061;52.036;5.558;2022-09-06T15:12:00;4.22;;;2.00;;
67146;SDS011;54061;52.036;5.558;2022-09-06T15:14:26;4.32;;;1.80;;
67146;SDS011;54061;52.036;5.558;2022-09-06T15:16:55;4.90;;;1.80;;
67146;SDS011;54061;52.036;5.558;2022-09-06T15:19:24;4.97;;;1.92;;
67146;SDS011;54061;52.036;5.558;2022-09-06T15:21:51;4.45;;;2.17;;
67146;SDS011;54061;52.036;5.558;2022-09-06T15:24:17;3.30;;;1.88;;
67146;SDS011;54061;52.036;5.558;2022-09-06T15:26:43;5.28;;;1.98;;
67146;SDS011;54061;52.036;5.558;2022-09-06T15:29:09;4.82;;;1.80;;
67146;SDS011;54061;52.036;5.558;2022-09-06T15:31:35;2.85;;;1.60;;
67146;SDS011;54061;52.036;5.558;2022-09-06T15:34:02;7.95;;;1.88;;
67146;SDS011;54061;52.036;5.558;2022-09-06T15:36:28;4.45;;;1.70;;
67146;SDS011;54061;52.036;5.558;2022-09-06T15:38:54;3.08;;;1.70;;
67146;SDS011;54061;52.036;5.558;2022-09-06T15:41:24;5.25;;;1.80;;
67146;SDS011;54061;52.036;5.558;2022-09-06T15:43:52;5.30;;;1.90;;
67146;SDS011;54061;52.036;5.558;2022-09-06T15:46:37;4.03;;;1.60;;
67146;SDS011;54061;52.036;5.558;2022-09-06T15:49:26;3.35;;;1.63;;
67146;SDS011;54061;52.036;5.558;2022-09-06T15:51:56;4.28;;;1.80;;
67146;SDS011;54061;52.036;5.558;2022-09-06T15:54:24;4.15;;;1.40;;
67146;SDS011;54061;52.036;5.558;2022-09-06T15:57:09;4.78;;;1.92;;
67146;SDS011;54061;52.036;5.558;2022-09-06T15:59:36;8.32;;;2.00;;
67146;SDS011;54061;52.036;5.558;2022-09-06T16:02:03;5.97;;;2.13;;
67146;SDS011;54061;52.036;5.558;2022-09-06T16:04:29;7.43;;;1.70;;
67146;SDS011;54061;52.036;5.558;2022-09-06T16:06:54;4.88;;;1.70;;
67146;SDS011;54061;52.036;5.558;2022-09-06T16:09:20;7.90;;;1.83;;
67146;SDS011;54061;52.036;5.558;2022-09-06T16:11:46;4.88;;;1.67;;
67146;SDS011;54061;52.036;5.558;2022-09-06T16:14:13;6.82;;;1.98;;
67146;SDS011;54061;52.036;5.558;2022-09-06T16:16:40;5.38;;;2.22;;
67146;SDS011;54061;52.036;5.558;2022-09-06T16:19:06;6.32;;;2.40;;
67146;SDS011;54061;52.036;5.558;2022-09-06T16:21:32;7.90;;;1.73;;
67146;SDS011;54061;52.036;5.558;2022-09-06T16:24:02;2.58;;;1.60;;
67146;SDS011;54061;52.036;5.558;2022-09-06T16:26:30;4.35;;;1.80;;
67146;SDS011;54061;52.036;5.558;2022-09-06T16:29:00;5.43;;;2.20;;
67146;SDS011;54061;52.036;5.558;2022-09-06T16:31:27;2.78;;;1.63;;
67146;SDS011;54061;52.036;5.558;2022-09-06T16:33:53;2.88;;;1.40;;
67146;SDS011;54061;52.036;5.558;2022-09-06T16:36:20;7.22;;;1.80;;
67146;SDS011;54061;52.036;5.558;2022-09-06T16:38:46;4.05;;;1.80;;
67146;SDS011;54061;52.036;5.558;2022-09-06T16:41:17;5.80;;;2.00;;
67146;SDS011;54061;52.036;5.558;2022-09-06T16:43:45;3.95;;;1.85;;